sensor_id;sensor_type;location;lat;lon;timestamp;pressure;altitude;pressure_sealevel;temperature;humidity
6224;BME280;3145;42.726;23.342;2022-10-28T00:01:37;96548.47;;;10.37;83.45
6224;BME280;3145;42.726;23.342;2022-10-28T00:04:04;96586.38;;;10.63;83.10
6224;BME280;3145;42.726;23.342;2022-10-28T00:06:33;96602.63;;;10.68;82.96
6224;BME280;3145;42.726;23.342;2022-10-28T00:09:02;96600.00;;;10.68;83.26
6224;BME280;3145;42.726;23.342;2022-10-28T00:11:31;96599.75;;;10.62;83.28
6224;BME280;3145;42.726;23.342;2022-10-28T00:14:00;96599.75;;;10.62;83.35
6224;BME280;3145;42.726;23.342;2022-10-28T00:16:28;96600.59;;;10.62;83.26
6224;BME280;3145;42.726;23.342;2022-10-28T00:18:57;96608.53;;;10.62;82.88
6224;BME280;3145;42.726;23.342;2022-10-28T00:21:26;96598.75;;;10.63;83.22
6224;BME280;3145;42.726;23.342;2022-10-28T00:23:54;96539.75;;;10.27;82.96
6224;BME280;3145;42.726;23.342;2022-10-28T00:26:24;96588.09;;;10.55;83.24
6224;BME280;3145;42.726;23.342;2022-10-28T00:28:53;96588.94;;;10.55;83.15
6224;BME280;3145;42.726;23.342;2022-10-28T00:31:21;96510.66;;;10.00;83.06
6224;BME280;3145;42.726;23.342;2022-10-28T00:33:49;96588.19;;;10.45;82.89
6224;BME280;3145;42.726;23.342;2022-10-28T00:36:18;96587.53;;;10.34;82.96
6224;BME280;3145;42.726;23.342;2022-10-28T00:38:47;96584.06;;;10.33;83.59
6224;BME280;3145;42.726;23.342;2022-10-28T00:41:16;96585.44;;;10.37;83.87
6224;BME280;3145;42.726;23.342;2022-10-28T00:43:46;96572.13;;;10.29;83.59
6224;BME280;3145;42.726;23.342;2022-10-28T00:46:19;96575.44;;;10.31;83.53
6224;BME280;3145;42.726;23.342;2022-10-28T00:48:50;96589.34;;;10.33;83.38
6224;BME280;3145;42.726;23.342;2022-10-28T00:51:20;96595.47;;;10.34;83.51
6224;BME280;3145;42.726;23.342;2022-10-28T00:53:48;96587.69;;;10.32;82.88
6224;BME280;3145;42.726;23.342;2022-10-28T00:56:16;96566.09;;;10.10;82.81
6224;BME280;3145;42.726;23.342;2022-10-28T00:58:46;96597.19;;;10.25;82.92
6224;BME280;3145;42.726;23.342;2022-10-28T01:01:14;96558.59;;;10.05;83.61
6224;BME280;3145;42.726;23.342;2022-10-28T01:03:41;96570.84;;;10.06;82.83
6224;BME280;3145;42.726;23.342;2022-10-28T01:06:07;96549.88;;;9.95;82.77
6224;BME280;3145;42.726;23.342;2022-10-28T01:08:35;96592.47;;;10.19;83.58
6224;BME280;3145;42.726;23.342;2022-10-28T01:11:14;96576.53;;;10.11;83.47
6224;BME280;3145;42.726;23.342;2022-10-28T01:13:55;96589.72;;;10.11;83.29
6224;BME280;3145;42.726;23.342;2022-10-28T01:16:31;96591.53;;;10.11;83.58
6224;BME280;3145;42.726;23.342;2022-10-28T01:19:11;96601.94;;;10.12;82.98
6224;BME280;3145;42.726;23.342;2022-10-28T01:22:03;96573.53;;;9.87;82.91
6224;BME280;3145;42.726;23.342;2022-10-28T01:24:53;96584.19;;;9.95;83.58
6224;BME280;3145;42.726;23.342;2022-10-28T01:27:48;96581.16;;;9.90;83.42
6224;BME280;3145;42.726;23.342;2022-10-28T01:30:23;96573.94;;;9.83;83.77
6224;BME280;3145;42.726;23.342;2022-10-28T01:32:58;96584.09;;;9.87;83.53
6224;BME280;3145;42.726;23.342;2022-10-28T01:35:32;96558.59;;;9.69;83.24
6224;BME280;3145;42.726;23.342;2022-10-28T01:38:13;96559.00;;;9.64;83.82
6224;BME280;3145;42.726;23.342;2022-10-28T01:40:44;96601.75;;;9.77;83.36
6224;BME280;3145;42.726;23.342;2022-10-28T01:43:16;96595.66;;;9.67;83.26
6224;BME280;3145;42.726;23.342;2022-10-28T01:45:51;96583.06;;;9.51;82.87
6224;BME280;3145;42.726;23.342;2022-10-28T01:48:28;96594.03;;;9.57;83.36
6224;BME280;3145;42.726;23.342;2022-10-28T01:51:02;96566.72;;;9.29;83.88
6224;BME280;3145;42.726;23.342;2022-10-28T01:53:33;96595.69;;;9.48;84.25
6224;BME280;3145;42.726;23.342;2022-10-28T01:56:03;96594.72;;;9.49;84.65
6224;BME280;3145;42.726;23.342;2022-10-28T01:58:34;96587.94;;;9.37;84.43
6224;BME280;3145;42.726;23.342;2022-10-28T02:01:04;96591.00;;;9.42;84.25
6224;BME280;3145;42.726;23.342;2022-10-28T02:03:33;96579.09;;;9.19;84.48
6224;BME280;3145;42.726;23.342;2022-10-28T02:06:02;96563.81;;;9.03;83.76
6224;BME280;3145;42.726;23.342;2022-10-28T02:08:56;96594.34;;;9.25;85.15
6224;BME280;3145;42.726;23.342;2022-10-28T02:11:36;96590.31;;;9.21;85.27
6224;BME280;3145;42.726;23.342;2022-10-28T02:14:16;96582.97;;;9.15;85.47
6224;BME280;3145;42.726;23.342;2022-10-28T02:16:50;96601.00;;;9.29;85.43
6224;BME280;3145;42.726;23.342;2022-10-28T02:19:26;96577.69;;;8.96;84.66
6224;BME280;3145;42.726;23.342;2022-10-28T02:22:03;96607.38;;;9.07;84.41
6224;BME280;3145;42.726;23.342;2022-10-28T02:24:42;96604.06;;;8.96;84.91
6224;BME280;3145;42.726;23.342;2022-10-28T02:27:17;96607.94;;;8.92;85.27
6224;BME280;3145;42.726;23.342;2022-10-28T02:29:49;96593.78;;;8.83;85.75
6224;BME280;3145;42.726;23.342;2022-10-28T02:32:22;96517.34;;;8.36;86.35
6224;BME280;3145;42.726;23.342;2022-10-28T02:34:55;96595.28;;;8.86;86.20
6224;BME280;3145;42.726;23.342;2022-10-28T02:37:27;96610.44;;;8.93;85.98
6224;BME280;3145;42.726;23.342;2022-10-28T02:39:58;96574.63;;;8.72;86.36
6224;BME280;3145;42.726;23.342;2022-10-28T02:42:28;96607.41;;;8.88;86.16
6224;BME280;3145;42.726;23.342;2022-10-28T02:44:58;96614.06;;;8.92;86.10
6224;BME280;3145;42.726;23.342;2022-10-28T02:47:30;96582.28;;;8.75;86.61
6224;BME280;3145;42.726;23.342;2022-10-28T02:50:04;96606.81;;;8.85;86.02
6224;BME280;3145;42.726;23.342;2022-10-28T02:52:33;96619.31;;;8.83;85.38
6224;BME280;3145;42.726;23.342;2022-10-28T02:55:03;96588.19;;;8.58;85.37
6224;BME280;3145;42.726;23.342;2022-10-28T02:57:32;96610.28;;;8.76;86.48
6224;BME280;3145;42.726;23.342;2022-10-28T03:00:05;96565.19;;;8.50;86.59
6224;BME280;3145;42.726;23.342;2022-10-28T03:02:33;96613.88;;;8.75;86.43
6224;BME280;3145;42.726;23.342;2022-10-28T03:05:01;96615.41;;;8.77;86.04
6224;BME280;3145;42.726;23.342;2022-10-28T03:07:28;96604.59;;;8.71;86.03
6224;BME280;3145;42.726;23.342;2022-10-28T03:09:55;96595.69;;;8.62;85.67
6224;BME280;3145;42.726;23.342;2022-10-28T03:12:21;96597.19;;;8.55;85.92
6224;BME280;3145;42.726;23.342;2022-10-28T03:14:48;96589.00;;;8.49;85.36
6224;BME280;3145;42.726;23.342;2022-10-28T03:17:15;96592.34;;;8.51;85.84
6224;BME280;3145;42.726;23.342;2022-10-28T03:19:42;96624.81;;;8.61;85.57
6224;BME280;3145;42.726;23.342;2022-10-28T03:22:10;96619.53;;;8.61;86.15
6224;BME280;3145;42.726;23.342;2022-10-28T03:24:37;96611.63;;;8.61;85.70
6224;BME280;3145;42.726;23.342;2022-10-28T03:27:05;96610.94;;;8.59;86.10
6224;BME280;3145;42.726;23.342;2022-10-28T03:29:32;96589.00;;;8.49;86.26
6224;BME280;3145;42.726;23.342;2022-10-28T03:31:59;96596.66;;;8.52;85.69
6224;BME280;3145;42.726;23.342;2022-10-28T03:34:25;96616.09;;;8.60;85.66
6224;BME280;3145;42.726;23.342;2022-10-28T03:36:52;96580.94;;;8.41;85.75
6224;BME280;3145;42.726;23.342;2022-10-28T03:39:20;96614.81;;;8.55;85.58
6224;BME280;3145;42.726;23.342;2022-10-28T03:41:47;96604.78;;;8.39;85.76
6224;BME280;3145;42.726;23.342;2022-10-28T03:44:14;96610.94;;;8.49;86.27
6224;BME280;3145;42.726;23.342;2022-10-28T03:46:41;96618.41;;;8.44;86.16
6224;BME280;3145;42.726;23.342;2022-10-28T03:49:07;96613.78;;;8.37;85.81
6224;BME280;3145;42.726;23.342;2022-10-28T03:51:34;96626.97;;;8.37;85.81
6224;BME280;3145;42.726;23.342;2022-10-28T03:54:01;96591.09;;;8.15;85.65
6224;BME280;3145;42.726;23.342;2022-10-28T03:56:29;96622.94;;;8.33;86.27
6224;BME280;3145;42.726;23.342;2022-10-28T03:58:56;96618.38;;;8.35;86.43
6224;BME280;3145;42.726;23.342;2022-10-28T04:01:23;96627.22;;;8.34;85.99
6224;BME280;3145;42.726;23.342;2022-10-28T04:03:50;96619.94;;;8.17;85.71
6224;BME280;3145;42.726;23.342;2022-10-28T04:06:17;96608.66;;;8.05;85.56
6224;BME280;3145;42.726;23.342;2022-10-28T04:08:43;96625.44;;;8.14;85.58
6224;BME280;3145;42.726;23.342;2022-10-28T04:11:10;96621.41;;;8.10;85.02
6224;BME280;3145;42.726;23.342;2022-10-28T04:13:38;96602.22;;;7.89;85.01
6224;BME280;3145;42.726;23.342;2022-10-28T04:16:06;96618.72;;;7.91;85.07
6224;BME280;3145;42.726;23.342;2022-10-28T04:18:32;96621.72;;;7.86;85.18
6224;BME280;3145;42.726;23.342;2022-10-28T04:21:00;96628.09;;;7.84;84.82
6224;BME280;3145;42.726;23.342;2022-10-28T04:23:27;96608.47;;;7.67;85.30
6224;BME280;3145;42.726;23.342;2022-10-28T04:25:54;96623.03;;;7.71;85.23
6224;BME280;3145;42.726;23.342;2022-10-28T04:28:21;96598.44;;;7.52;85.88
6224;BME280;3145;42.726;23.342;2022-10-28T04:30:50;96508.31;;;6.99;86.23
6224;BME280;3145;42.726;23.342;2022-10-28T04:33:17;96628.22;;;7.62;86.29
6224;BME280;3145;42.726;23.342;2022-10-28T04:35:44;96619.84;;;7.47;87.00
6224;BME280;3145;42.726;23.342;2022-10-28T04:38:11;96632.31;;;7.55;87.17
6224;BME280;3145;42.726;23.342;2022-10-28T04:40:39;96603.75;;;7.41;87.18
6224;BME280;3145;42.726;23.342;2022-10-28T04:43:06;96596.22;;;7.36;86.98
6224;BME280;3145;42.726;23.342;2022-10-28T04:45:34;96631.63;;;7.53;87.35
6224;BME280;3145;42.726;23.342;2022-10-28T04:48:02;96561.94;;;6.97;87.43
6224;BME280;3145;42.726;23.342;2022-10-28T04:50:29;96626.69;;;7.39;91.61
6224;BME280;3145;42.726;23.342;2022-10-28T04:52:56;96624.25;;;7.47;93.49
6224;BME280;3145;42.726;23.342;2022-10-28T04:55:23;96574.06;;;7.29;93.78
6224;BME280;3145;42.726;23.342;2022-10-28T04:57:53;96627.72;;;7.68;93.33
6224;BME280;3145;42.726;23.342;2022-10-28T05:00:21;96612.56;;;7.60;92.73
6224;BME280;3145;42.726;23.342;2022-10-28T05:02:47;96612.44;;;7.62;91.67
6224;BME280;3145;42.726;23.342;2022-10-28T05:05:16;96595.91;;;7.71;91.10
6224;BME280;3145;42.726;23.342;2022-10-28T05:07:43;96593.91;;;7.63;90.16
6224;BME280;3145;42.726;23.342;2022-10-28T05:10:10;96587.91;;;7.82;90.47
6224;BME280;3145;42.726;23.342;2022-10-28T05:12:40;96630.81;;;8.33;89.96
6224;BME280;3145;42.726;23.342;2022-10-28T05:15:08;96618.41;;;8.54;90.42
6224;BME280;3145;42.726;23.342;2022-10-28T05:17:37;96612.09;;;8.85;88.97
6224;BME280;3145;42.726;23.342;2022-10-28T05:20:06;96596.28;;;9.04;87.14
6224;BME280;3145;42.726;23.342;2022-10-28T05:22:34;96636.78;;;9.60;86.75
6224;BME280;3145;42.726;23.342;2022-10-28T05:25:02;96626.47;;;9.86;86.01
6224;BME280;3145;42.726;23.342;2022-10-28T05:27:29;96647.66;;;10.22;84.67
6224;BME280;3145;42.726;23.342;2022-10-28T05:29:55;96627.72;;;10.37;82.81
6224;BME280;3145;42.726;23.342;2022-10-28T05:32:22;96658.09;;;10.78;81.36
6224;BME280;3145;42.726;23.342;2022-10-28T05:34:49;96655.28;;;11.06;80.09
6224;BME280;3145;42.726;23.342;2022-10-28T05:37:16;96655.44;;;11.40;78.85
6224;BME280;3145;42.726;23.342;2022-10-28T05:39:44;96657.19;;;11.66;78.30
6224;BME280;3145;42.726;23.342;2022-10-28T05:42:11;96646.75;;;11.82;76.48
6224;BME280;3145;42.726;23.342;2022-10-28T05:44:37;96624.00;;;11.97;74.01
6224;BME280;3145;42.726;23.342;2022-10-28T05:47:04;96645.97;;;12.15;72.20
6224;BME280;3145;42.726;23.342;2022-10-28T05:49:31;96665.59;;;12.30;71.88
6224;BME280;3145;42.726;23.342;2022-10-28T05:51:58;96664.31;;;12.34;72.50
6224;BME280;3145;42.726;23.342;2022-10-28T05:54:25;96660.69;;;12.77;71.28
6224;BME280;3145;42.726;23.342;2022-10-28T05:56:53;96625.22;;;12.36;69.54
6224;BME280;3145;42.726;23.342;2022-10-28T05:59:20;96653.69;;;13.01;68.67
6224;BME280;3145;42.726;23.342;2022-10-28T06:01:47;96676.75;;;13.09;68.82
6224;BME280;3145;42.726;23.342;2022-10-28T06:04:14;96673.84;;;13.44;67.84
6224;BME280;3145;42.726;23.342;2022-10-28T06:06:40;96676.06;;;13.64;66.85
6224;BME280;3145;42.726;23.342;2022-10-28T06:09:07;96685.50;;;13.59;66.20
6224;BME280;3145;42.726;23.342;2022-10-28T06:11:34;96679.38;;;13.74;66.53
6224;BME280;3145;42.726;23.342;2022-10-28T06:14:02;96649.47;;;14.05;65.26
6224;BME280;3145;42.726;23.342;2022-10-28T06:16:29;96678.94;;;14.66;62.84
6224;BME280;3145;42.726;23.342;2022-10-28T06:18:56;96674.91;;;14.86;60.85
6224;BME280;3145;42.726;23.342;2022-10-28T06:21:23;96687.16;;;15.33;59.02
6224;BME280;3145;42.726;23.342;2022-10-28T06:23:50;96699.97;;;15.68;58.51
6224;BME280;3145;42.726;23.342;2022-10-28T06:26:17;96672.59;;;15.74;56.58
6224;BME280;3145;42.726;23.342;2022-10-28T06:28:46;96696.38;;;16.21;55.38
6224;BME280;3145;42.726;23.342;2022-10-28T06:31:14;96700.44;;;16.54;54.59
6224;BME280;3145;42.726;23.342;2022-10-28T06:33:41;96679.47;;;16.65;53.55
6224;BME280;3145;42.726;23.342;2022-10-28T06:36:08;96659.94;;;16.65;53.19
6224;BME280;3145;42.726;23.342;2022-10-28T06:38:35;96702.13;;;17.13;52.25
6224;BME280;3145;42.726;23.342;2022-10-28T06:41:02;96704.59;;;17.43;51.36
6224;BME280;3145;42.726;23.342;2022-10-28T06:43:29;96694.47;;;17.74;50.66
6224;BME280;3145;42.726;23.342;2022-10-28T06:45:59;96708.78;;;17.88;49.63
6224;BME280;3145;42.726;23.342;2022-10-28T06:48:27;96657.09;;;17.81;49.15
6224;BME280;3145;42.726;23.342;2022-10-28T06:50:54;96690.88;;;18.09;48.87
6224;BME280;3145;42.726;23.342;2022-10-28T06:53:22;96680.00;;;18.11;47.26
6224;BME280;3145;42.726;23.342;2022-10-28T06:55:51;96698.63;;;18.40;47.20
6224;BME280;3145;42.726;23.342;2022-10-28T06:58:18;96708.59;;;18.53;46.82
6224;BME280;3145;42.726;23.342;2022-10-28T07:00:45;96686.63;;;17.94;47.04
6224;BME280;3145;42.726;23.342;2022-10-28T07:03:12;96679.34;;;17.88;47.56
6224;BME280;3145;42.726;23.342;2022-10-28T07:05:40;96702.09;;;17.77;48.55
6224;BME280;3145;42.726;23.342;2022-10-28T07:08:07;96704.72;;;18.13;48.39
6224;BME280;3145;42.726;23.342;2022-10-28T07:10:33;96698.91;;;17.67;48.17
6224;BME280;3145;42.726;23.342;2022-10-28T07:13:00;96693.56;;;17.67;48.69
6224;BME280;3145;42.726;23.342;2022-10-28T07:15:27;96680.16;;;17.32;50.25
6224;BME280;3145;42.726;23.342;2022-10-28T07:17:54;96700.66;;;17.96;49.59
6224;BME280;3145;42.726;23.342;2022-10-28T07:20:22;96684.53;;;17.89;47.97
6224;BME280;3145;42.726;23.342;2022-10-28T07:22:57;96663.06;;;17.83;48.61
6224;BME280;3145;42.726;23.342;2022-10-28T07:25:24;96707.78;;;18.52;47.46
6224;BME280;3145;42.726;23.342;2022-10-28T07:27:51;96698.56;;;18.95;47.18
6224;BME280;3145;42.726;23.342;2022-10-28T07:30:18;96673.69;;;19.01;46.35
6224;BME280;3145;42.726;23.342;2022-10-28T07:32:45;96700.94;;;19.45;45.31
6224;BME280;3145;42.726;23.342;2022-10-28T07:35:12;96677.03;;;19.57;44.61
6224;BME280;3145;42.726;23.342;2022-10-28T07:37:39;96686.22;;;20.01;43.01
6224;BME280;3145;42.726;23.342;2022-10-28T07:40:08;96679.88;;;19.42;43.87
6224;BME280;3145;42.726;23.342;2022-10-28T07:42:35;96687.47;;;19.92;43.88
6224;BME280;3145;42.726;23.342;2022-10-28T07:45:02;96687.53;;;20.18;43.36
6224;BME280;3145;42.726;23.342;2022-10-28T07:47:29;96700.16;;;20.63;42.25
6224;BME280;3145;42.726;23.342;2022-10-28T07:49:56;96669.75;;;20.69;42.22
6224;BME280;3145;42.726;23.342;2022-10-28T07:52:22;96699.09;;;20.64;41.74
6224;BME280;3145;42.726;23.342;2022-10-28T07:54:49;96688.50;;;19.91;41.53
6224;BME280;3145;42.726;23.342;2022-10-28T07:57:18;96649.81;;;19.53;43.99
6224;BME280;3145;42.726;23.342;2022-10-28T07:59:45;96689.19;;;20.19;43.17
6224;BME280;3145;42.726;23.342;2022-10-28T08:02:16;96693.72;;;20.25;41.85
6224;BME280;3145;42.726;23.342;2022-10-28T08:04:43;96697.00;;;20.14;43.47
6224;BME280;3145;42.726;23.342;2022-10-28T08:07:10;96689.00;;;20.34;42.76
6224;BME280;3145;42.726;23.342;2022-10-28T08:09:38;96681.13;;;20.19;43.33
6224;BME280;3145;42.726;23.342;2022-10-28T08:12:05;96690.63;;;20.28;43.06
6224;BME280;3145;42.726;23.342;2022-10-28T08:14:34;96694.78;;;20.57;42.00
6224;BME280;3145;42.726;23.342;2022-10-28T08:17:01;96660.88;;;20.75;41.60
6224;BME280;3145;42.726;23.342;2022-10-28T08:19:27;96677.16;;;21.06;40.78
6224;BME280;3145;42.726;23.342;2022-10-28T08:21:54;96680.00;;;21.24;40.05
6224;BME280;3145;42.726;23.342;2022-10-28T08:24:21;96671.41;;;20.83;40.77
6224;BME280;3145;42.726;23.342;2022-10-28T08:26:48;96686.09;;;20.94;40.95
6224;BME280;3145;42.726;23.342;2022-10-28T08:29:15;96674.31;;;20.36;40.95
6224;BME280;3145;42.726;23.342;2022-10-28T08:31:43;96680.50;;;20.30;42.01
6224;BME280;3145;42.726;23.342;2022-10-28T08:34:10;96686.72;;;20.50;41.55
6224;BME280;3145;42.726;23.342;2022-10-28T08:36:37;96679.03;;;20.73;41.34
6224;BME280;3145;42.726;23.342;2022-10-28T08:39:04;96680.50;;;20.69;41.13
6224;BME280;3145;42.726;23.342;2022-10-28T08:41:36;96663.13;;;20.72;41.71
6224;BME280;3145;42.726;23.342;2022-10-28T08:44:29;96663.38;;;20.51;41.80
6224;BME280;3145;42.726;23.342;2022-10-28T08:47:08;96649.13;;;20.37;42.38
6224;BME280;3145;42.726;23.342;2022-10-28T08:49:39;96668.72;;;20.18;42.51
6224;BME280;3145;42.726;23.342;2022-10-28T08:52:16;96648.91;;;20.32;42.57
6224;BME280;3145;42.726;23.342;2022-10-28T08:54:50;96667.31;;;20.29;42.39
6224;BME280;3145;42.726;23.342;2022-10-28T08:57:20;96672.69;;;20.35;42.23
6224;BME280;3145;42.726;23.342;2022-10-28T08:59:50;96671.44;;;20.44;42.35
6224;BME280;3145;42.726;23.342;2022-10-28T09:02:21;96652.63;;;20.44;42.87
6224;BME280;3145;42.726;23.342;2022-10-28T09:04:54;96652.84;;;20.36;43.06
6224;BME280;3145;42.726;23.342;2022-10-28T09:07:23;96655.91;;;20.66;42.44
6224;BME280;3145;42.726;23.342;2022-10-28T09:09:51;96636.28;;;20.59;42.93
6224;BME280;3145;42.726;23.342;2022-10-28T09:12:30;96654.47;;;20.63;42.43
6224;BME280;3145;42.726;23.342;2022-10-28T09:15:17;96642.44;;;20.79;42.23
6224;BME280;3145;42.726;23.342;2022-10-28T09:17:52;96658.56;;;21.05;40.84
6224;BME280;3145;42.726;23.342;2022-10-28T09:20:22;96615.59;;;20.72;41.10
6224;BME280;3145;42.726;23.342;2022-10-28T09:22:55;96638.72;;;20.73;42.01
6224;BME280;3145;42.726;23.342;2022-10-28T09:25:27;96627.34;;;20.84;41.75
6224;BME280;3145;42.726;23.342;2022-10-28T09:28:14;96635.84;;;20.75;41.59
6224;BME280;3145;42.726;23.342;2022-10-28T09:30:51;96624.28;;;20.61;42.58
6224;BME280;3145;42.726;23.342;2022-10-28T09:33:37;96610.38;;;20.84;42.29
6224;BME280;3145;42.726;23.342;2022-10-28T09:36:09;96610.06;;;20.54;42.58
6224;BME280;3145;42.726;23.342;2022-10-28T09:38:38;96612.53;;;20.62;42.65
6224;BME280;3145;42.726;23.342;2022-10-28T09:41:10;96630.06;;;20.71;42.29
6224;BME280;3145;42.726;23.342;2022-10-28T09:43:45;96620.97;;;20.72;42.56
6224;BME280;3145;42.726;23.342;2022-10-28T09:46:15;96577.81;;;20.61;42.19
6224;BME280;3145;42.726;23.342;2022-10-28T09:48:45;96563.50;;;20.73;42.81
6224;BME280;3145;42.726;23.342;2022-10-28T09:51:23;96606.69;;;20.91;42.22
6224;BME280;3145;42.726;23.342;2022-10-28T09:53:55;96591.16;;;20.93;42.10
6224;BME280;3145;42.726;23.342;2022-10-28T09:56:23;96579.03;;;20.71;42.49
6224;BME280;3145;42.726;23.342;2022-10-28T09:58:51;96587.00;;;20.91;42.92
6224;BME280;3145;42.726;23.342;2022-10-28T10:01:19;96569.53;;;20.62;43.25
6224;BME280;3145;42.726;23.342;2022-10-28T10:03:48;96589.91;;;21.02;42.79
6224;BME280;3145;42.726;23.342;2022-10-28T10:06:17;96593.84;;;20.87;42.98
6224;BME280;3145;42.726;23.342;2022-10-28T10:08:45;96586.00;;;20.79;42.82
6224;BME280;3145;42.726;23.342;2022-10-28T10:11:23;96514.88;;;19.85;44.34
6224;BME280;3145;42.726;23.342;2022-10-28T10:13:51;96557.78;;;20.57;43.68
6224;BME280;3145;42.726;23.342;2022-10-28T10:18:53;96576.13;;;21.30;41.71
6224;BME280;3145;42.726;23.342;2022-10-28T10:21:39;96585.28;;;21.22;41.83
6224;BME280;3145;42.726;23.342;2022-10-28T10:24:24;96567.47;;;21.21;42.94
6224;BME280;3145;42.726;23.342;2022-10-28T10:26:51;96562.38;;;21.44;41.62
6224;BME280;3145;42.726;23.342;2022-10-28T10:29:19;96547.19;;;21.56;40.41
6224;BME280;3145;42.726;23.342;2022-10-28T10:31:47;96562.63;;;20.92;42.56
6224;BME280;3145;42.726;23.342;2022-10-28T10:34:22;96544.41;;;20.88;41.95
6224;BME280;3145;42.726;23.342;2022-10-28T10:36:53;96549.34;;;21.10;41.62
6224;BME280;3145;42.726;23.342;2022-10-28T10:39:22;96553.94;;;20.90;41.23
6224;BME280;3145;42.726;23.342;2022-10-28T10:41:53;96534.91;;;20.98;41.34
6224;BME280;3145;42.726;23.342;2022-10-28T10:44:30;96552.13;;;21.28;41.49
6224;BME280;3145;42.726;23.342;2022-10-28T10:47:16;96537.56;;;21.42;41.01
6224;BME280;3145;42.726;23.342;2022-10-28T10:49:45;96531.88;;;21.26;39.81
6224;BME280;3145;42.726;23.342;2022-10-28T10:52:20;96525.72;;;21.12;40.17
6224;BME280;3145;42.726;23.342;2022-10-28T10:54:57;96550.44;;;21.34;39.50
6224;BME280;3145;42.726;23.342;2022-10-28T10:57:26;96539.22;;;21.43;38.94
6224;BME280;3145;42.726;23.342;2022-10-28T10:59:54;96537.56;;;21.42;37.93
6224;BME280;3145;42.726;23.342;2022-10-28T11:02:25;96523.59;;;21.27;38.92
6224;BME280;3145;42.726;23.342;2022-10-28T11:04:56;96507.53;;;21.14;39.06
6224;BME280;3145;42.726;23.342;2022-10-28T11:07:24;96502.31;;;21.19;37.88
6224;BME280;3145;42.726;23.342;2022-10-28T11:09:53;96489.78;;;21.07;37.93
6224;BME280;3145;42.726;23.342;2022-10-28T11:12:28;96515.78;;;21.50;37.70
6224;BME280;3145;42.726;23.342;2022-10-28T11:14:57;96501.00;;;21.59;37.46
6224;BME280;3145;42.726;23.342;2022-10-28T11:17:26;96517.88;;;21.79;37.02
6224;BME280;3145;42.726;23.342;2022-10-28T11:19:56;96479.63;;;21.95;36.84
6224;BME280;3145;42.726;23.342;2022-10-28T11:22:41;96507.81;;;22.36;35.79
6224;BME280;3145;42.726;23.342;2022-10-28T11:25:18;96509.84;;;21.98;34.57
6224;BME280;3145;42.726;23.342;2022-10-28T11:27:56;96511.78;;;21.59;35.79
6224;BME280;3145;42.726;23.342;2022-10-28T11:30:31;96461.22;;;20.68;37.16
6224;BME280;3145;42.726;23.342;2022-10-28T11:33:08;96509.31;;;20.83;37.26
6224;BME280;3145;42.726;23.342;2022-10-28T11:35:47;96493.22;;;20.76;37.32
6224;BME280;3145;42.726;23.342;2022-10-28T11:38:30;96489.53;;;20.64;37.70
6224;BME280;3145;42.726;23.342;2022-10-28T11:41:17;96500.69;;;20.74;37.67
6224;BME280;3145;42.726;23.342;2022-10-28T11:43:49;96453.16;;;20.68;37.52
6224;BME280;3145;42.726;23.342;2022-10-28T11:46:29;96496.38;;;21.11;37.15
6224;BME280;3145;42.726;23.342;2022-10-28T11:52:15;96496.91;;;21.57;36.58
6224;BME280;3145;42.726;23.342;2022-10-28T11:54:56;96478.38;;;21.42;36.25
6224;BME280;3145;42.726;23.342;2022-10-28T11:57:36;96474.97;;;21.53;36.42
6224;BME280;3145;42.726;23.342;2022-10-28T12:00:22;96459.94;;;21.46;36.81
6224;BME280;3145;42.726;23.342;2022-10-28T12:03:00;96478.16;;;21.44;36.40
6224;BME280;3145;42.726;23.342;2022-10-28T12:05:36;96406.53;;;20.87;37.00
6224;BME280;3145;42.726;23.342;2022-10-28T12:08:17;96486.09;;;21.32;36.92
6224;BME280;3145;42.726;23.342;2022-10-28T12:10:59;96465.19;;;21.34;36.68
6224;BME280;3145;42.726;23.342;2022-10-28T12:13:34;96427.84;;;20.89;36.82
6224;BME280;3145;42.726;23.342;2022-10-28T12:16:08;96479.50;;;21.28;37.62
6224;BME280;3145;42.726;23.342;2022-10-28T12:18:44;96477.19;;;21.38;36.81
6224;BME280;3145;42.726;23.342;2022-10-28T12:21:16;96465.47;;;21.26;36.57
6224;BME280;3145;42.726;23.342;2022-10-28T12:23:47;96447.13;;;21.17;36.73
6224;BME280;3145;42.726;23.342;2022-10-28T12:26:15;96472.47;;;21.58;36.01
6224;BME280;3145;42.726;23.342;2022-10-28T12:28:45;96461.66;;;21.65;36.21
6224;BME280;3145;42.726;23.342;2022-10-28T12:31:20;96469.34;;;21.86;35.80
6224;BME280;3145;42.726;23.342;2022-10-28T12:33:50;96467.97;;;22.02;36.08
6224;BME280;3145;42.726;23.342;2022-10-28T12:36:26;96466.16;;;21.95;35.73
6224;BME280;3145;42.726;23.342;2022-10-28T12:39:00;96428.53;;;21.64;35.80
6224;BME280;3145;42.726;23.342;2022-10-28T12:41:44;96441.53;;;21.67;36.29
6224;BME280;3145;42.726;23.342;2022-10-28T12:44:14;96457.81;;;21.54;36.13
6224;BME280;3145;42.726;23.342;2022-10-28T12:46:47;96456.13;;;21.53;36.49
6224;BME280;3145;42.726;23.342;2022-10-28T12:49:19;96452.44;;;21.54;35.80
6224;BME280;3145;42.726;23.342;2022-10-28T12:51:48;96437.84;;;21.37;36.24
6224;BME280;3145;42.726;23.342;2022-10-28T12:54:21;96452.06;;;21.44;36.71
6224;BME280;3145;42.726;23.342;2022-10-28T12:56:53;96431.00;;;21.17;36.64
6224;BME280;3145;42.726;23.342;2022-10-28T12:59:30;96444.22;;;21.12;37.33
6224;BME280;3145;42.726;23.342;2022-10-28T13:01:59;96449.34;;;21.26;37.02
6224;BME280;3145;42.726;23.342;2022-10-28T13:04:27;96439.06;;;21.17;37.24
6224;BME280;3145;42.726;23.342;2022-10-28T13:07:16;96449.28;;;21.02;37.24
6224;BME280;3145;42.726;23.342;2022-10-28T13:09:58;96407.66;;;20.73;37.25
6224;BME280;3145;42.726;23.342;2022-10-28T13:12:51;96441.31;;;20.82;37.71
6224;BME280;3145;42.726;23.342;2022-10-28T13:18:42;96444.75;;;20.96;37.42
6224;BME280;3145;42.726;23.342;2022-10-28T13:21:24;96416.25;;;20.88;36.76
6224;BME280;3145;42.726;23.342;2022-10-28T13:23:59;96413.13;;;20.98;36.98
6224;BME280;3145;42.726;23.342;2022-10-28T13:26:31;96438.38;;;21.21;36.70
6224;BME280;3145;42.726;23.342;2022-10-28T13:29:00;96435.69;;;21.21;36.67
6224;BME280;3145;42.726;23.342;2022-10-28T13:31:38;96424.28;;;21.26;36.84
6224;BME280;3145;42.726;23.342;2022-10-28T13:34:07;96406.56;;;21.18;36.64
6224;BME280;3145;42.726;23.342;2022-10-28T13:36:36;96407.78;;;21.22;36.20
6224;BME280;3145;42.726;23.342;2022-10-28T13:39:22;96352.06;;;20.74;36.47
6224;BME280;3145;42.726;23.342;2022-10-28T13:45:49;96423.91;;;21.22;36.42
6224;BME280;3145;42.726;23.342;2022-10-28T13:48:31;96398.41;;;21.00;36.40